Time;durP1;ratioP1;P1;durP2;ratioP2;P2;SDS_P1;SDS_P2;PMS_P1;PMS_P2;Temp;Humidity;BMP_temperature;BMP_pressure;BME280_temperature;BME280_humidity;BME280_pressure;Samples;Min_cycle;Max_cycle;Signal;HPM_P1;HPM_P2
2023/09/11 00:00:01;;;;;;;7.00;6.40;;;;;;;18.46;100.00;100185.69;4969506;28;20273;-78
2023/09/11 00:02:26;;;;;;;6.93;6.40;;;;;;;18.45;100.00;100175.28;4963219;28;20211;-78
2023/09/11 00:04:52;;;;;;;6.33;5.83;;;;;;;18.43;100.00;100173.56;4967795;28;20573;-77
2023/09/11 00:07:17;;;;;;;6.83;6.13;;;;;;;18.41;100.00;100172.78;4973892;28;20183;-77
2023/09/11 00:09:43;;;;;;;6.43;5.93;;;;;;;18.42;100.00;100165.75;4978817;28;20218;-78
2023/09/11 00:12:08;;;;;;;8.13;5.47;;;;;;;18.42;100.00;100166.63;4975538;28;20230;-77
2023/09/11 00:14:33;;;;;;;5.90;5.40;;;;;;;18.43;100.00;100173.56;4965388;28;20198;-77
2023/09/11 00:16:59;;;;;;;5.97;5.47;;;;;;;18.42;100.00;100165.75;4964216;28;20217;-78
2023/09/11 00:19:24;;;;;;;6.93;6.33;;;;;;;18.40;100.00;100170.22;4960281;28;20746;-77
2023/09/11 00:21:49;;;;;;;6.57;6.00;;;;;;;18.35;100.00;100165.19;4975845;28;20248;-77
2023/09/11 00:24:14;;;;;;;6.10;5.60;;;;;;;18.31;100.00;100163.59;4966602;28;20205;-77
2023/09/11 00:26:40;;;;;;;5.70;5.30;;;;;;;18.28;100.00;100159.34;4968861;28;20201;-76
2023/09/11 00:29:05;;;;;;;6.37;5.77;;;;;;;18.24;100.00;100156.94;4964264;28;20252;-77
2023/09/11 00:31:30;;;;;;;6.03;5.53;;;;;;;18.20;100.00;100156.22;4965877;28;20589;-77
2023/09/11 00:33:56;;;;;;;5.63;5.23;;;;;;;18.16;100.00;100154.66;4955925;28;20307;-77
2023/09/11 00:36:21;;;;;;;6.43;5.80;;;;;;;18.11;100.00;100148.75;4963842;28;20178;-76
2023/09/11 00:38:49;;;;;;;6.13;5.63;;;;;;;18.08;100.00;100148.88;4964734;28;20181;-77
2023/09/11 00:41:15;;;;;;;5.87;5.47;;;;;;;18.04;100.00;100150.78;4967675;28;21138;-76
2023/09/11 00:43:40;;;;;;;5.17;4.77;;;;;;;18.01;100.00;100150.06;4967799;28;20277;-77
2023/09/11 00:46:06;;;;;;;5.67;5.17;;;;;;;18.01;100.00;100144.81;4973401;28;20238;-77
2023/09/11 00:48:32;;;;;;;5.67;5.17;;;;;;;18.01;100.00;100142.22;4964950;28;20189;-76
2023/09/11 00:50:57;;;;;;;6.33;5.83;;;;;;;18.01;100.00;100142.22;4965639;28;20193;-77
2023/09/11 00:53:23;;;;;;;6.23;5.73;;;;;;;18.00;100.00;100143.13;4964269;28;20330;-77
2023/09/11 00:55:48;;;;;;;5.47;5.07;;;;;;;17.98;100.00;100145.81;4953941;28;20987;-78
2023/09/11 00:58:16;;;;;;;5.77;4.80;;;;;;;17.96;100.00;100142.38;4967300;28;20182;-78
2023/09/11 01:00:46;;;;;;;5.60;5.20;;;;;;;17.94;100.00;100138.97;4957418;28;20258;-77
2023/09/11 01:03:12;;;;;;;5.67;5.27;;;;;;;17.91;100.00;100142.56;4960164;28;20212;-79
2023/09/11 01:05:38;;;;;;;5.90;5.40;;;;;;;17.89;100.00;100144.41;4963151;28;20940;-77
2023/09/11 01:08:04;;;;;;;5.43;4.93;;;;;;;17.88;100.00;100147.06;4965561;28;20251;-77
2023/09/11 01:10:29;;;;;;;6.17;5.67;;;;;;;17.85;100.00;100148.06;4957475;28;20208;-78
2023/09/11 01:12:56;;;;;;;6.33;5.83;;;;;;;17.82;100.00;100141.19;4967125;28;20209;-77
2023/09/11 01:15:24;;;;;;;5.70;5.20;;;;;;;17.80;100.00;100136.91;4965405;28;20206;-78
2023/09/11 01:17:56;;;;;;;5.87;5.30;;;;;;;17.78;100.00;100136.13;4963312;28;20260;-77
2023/09/11 01:20:39;;;;;;;5.87;5.37;;;;;;;17.76;100.00;100137.97;4962511;28;20190;-78
2023/09/11 01:23:34;;;;;;;6.10;5.60;;;;;;;17.74;100.00;100140.66;4970557;28;20204;-79
2023/09/11 01:26:27;;;;;;;6.17;5.67;;;;;;;17.71;100.00;100142.53;4961321;28;20187;-78
2023/09/11 01:29:24;;;;;;;5.97;5.50;;;;;;;17.67;100.00;100141.81;4959961;28;20199;-77
2023/09/11 01:31:50;;;;;;;6.07;5.53;;;;;;;17.64;100.00;100134.94;4965250;28;20207;-76
2023/09/11 01:34:15;;;;;;;6.20;5.70;;;;;;;17.62;100.00;100141.16;4962065;28;20292;-77
2023/09/11 01:36:40;;;;;;;6.47;5.97;;;;;;;17.60;100.00;100141.22;4961967;28;20219;-76
2023/09/11 01:39:06;;;;;;;6.67;6.07;;;;;;;17.55;100.00;100135.31;4965242;28;20250;-77
2023/09/11 01:41:37;;;;;;;6.10;5.60;;;;;;;17.52;100.00;100141.53;4965684;28;20237;-77
2023/09/11 01:44:08;;;;;;;6.10;5.60;;;;;;;17.46;100.00;100133.09;4978706;28;20713;-78
2023/09/11 01:46:34;;;;;;;6.23;5.50;;;;;;;17.42;100.00;100134.13;4962839;28;20197;-77
2023/09/11 01:49:01;;;;;;;6.33;5.73;;;;;;;17.39;100.00;100136.84;4971272;28;20193;-77
2023/09/11 01:51:28;;;;;;;6.20;5.70;;;;;;;17.34;100.00;100143.09;4970599;28;20790;-78
2023/09/11 01:53:54;;;;;;;6.63;6.10;;;;;;;17.34;100.00;100143.09;4967489;28;20214;-78
2023/09/11 01:56:19;;;;;;;6.73;6.17;;;;;;;17.29;100.00;100141.59;4969479;28;20193;-77
2023/09/11 01:58:45;;;;;;;7.03;6.13;;;;;;;17.27;100.00;100143.41;4962466;28;20364;-78
2023/09/11 02:01:10;;;;;;;6.30;5.77;;;;;;;17.28;100.00;100145.97;4960594;28;20677;-78
2023/09/11 02:03:35;;;;;;;6.17;5.70;;;;;;;17.28;100.00;100147.72;4963627;28;20201;-78
2023/09/11 02:06:01;;;;;;;5.97;5.47;;;;;;;17.28;100.00;100142.50;4964572;28;20190;-78
2023/09/11 02:08:26;;;;;;;6.27;5.77;;;;;;;17.27;100.00;100136.41;4961259;28;20279;-78
2023/09/11 02:10:53;;;;;;;6.10;5.60;;;;;;;17.27;100.00;100136.41;4965279;28;20190;-77
2023/09/11 02:13:19;;;;;;;6.37;5.87;;;;;;;17.27;100.00;100146.00;4965352;28;20711;-77
2023/09/11 02:15:44;;;;;;;5.77;5.37;;;;;;;17.25;100.00;100137.38;4965930;28;20212;-77
2023/09/11 02:18:10;;;;;;;6.63;5.83;;;;;;;17.22;100.00;100143.59;4966016;28;20189;-77
2023/09/11 02:20:35;;;;;;;6.20;5.60;;;;;;;17.19;100.00;100143.69;4957687;28;20208;-77
2023/09/11 02:23:00;;;;;;;5.73;5.33;;;;;;;17.17;100.00;100146.38;4959147;28;20931;-79
2023/09/11 02:25:26;;;;;;;5.63;5.13;;;;;;;17.14;100.00;100146.50;4958106;28;20198;-78
2023/09/11 02:27:51;;;;;;;5.97;5.47;;;;;;;17.11;100.00;100144.00;4961977;28;20198;-78
2023/09/11 02:30:16;;;;;;;6.00;5.47;;;;;;;17.08;100.00;100146.75;4960197;28;20182;-77
2023/09/11 02:32:42;;;;;;;6.07;5.67;;;;;;;17.06;100.00;100153.81;4960523;28;20212;-77
2023/09/11 02:35:07;;;;;;;5.83;5.43;;;;;;;17.04;100.00;100150.38;4956998;28;20561;-77
2023/09/11 02:37:33;;;;;;;5.63;5.20;;;;;;;17.02;100.00;100153.03;4959446;28;20244;-77
2023/09/11 02:39:59;;;;;;;6.23;5.73;;;;;;;17.01;100.00;100147.88;4967044;28;20189;-77
2023/09/11 02:42:24;;;;;;;6.17;5.67;;;;;;;16.99;100.00;100149.69;4958233;28;20205;-79
2023/09/11 02:44:50;;;;;;;6.77;6.20;;;;;;;16.98;100.00;100145.38;4963138;28;20197;-78
2023/09/11 02:47:15;;;;;;;6.27;5.77;;;;;;;16.97;100.00;100146.28;4965553;28;20210;-77
2023/09/11 02:49:40;;;;;;;5.90;5.50;;;;;;;16.96;100.00;100152.41;4970771;28;20204;-77
2023/09/11 02:52:06;;;;;;;6.53;6.03;;;;;;;16.93;100.00;100145.53;4962964;28;20264;-77
2023/09/11 02:54:31;;;;;;;6.63;6.13;;;;;;;16.94;100.00;100141.16;4968302;28;20193;-77
2023/09/11 02:56:56;;;;;;;5.73;5.33;;;;;;;16.91;100.00;100140.38;4963521;28;20880;-77
2023/09/11 02:59:21;;;;;;;5.47;5.07;;;;;;;16.89;100.00;100141.31;4963762;28;20194;-76
2023/09/11 03:01:47;;;;;;;5.97;5.47;;;;;;;16.88;100.00;100131.75;4965968;28;20209;-76
2023/09/11 03:04:12;;;;;;;6.57;6.03;;;;;;;16.88;100.00;100126.53;4959409;28;20226;-76
2023/09/11 03:06:37;;;;;;;6.10;5.70;;;;;;;16.88;100.00;100118.69;4967586;28;20189;-77
2023/09/11 03:09:05;;;;;;;6.40;5.90;;;;;;;16.92;100.00;100122.91;4968039;28;20653;-77
2023/09/11 03:11:31;;;;;;;6.10;5.70;;;;;;;16.94;100.00;100121.09;4966340;28;20218;-77
2023/09/11 03:13:56;;;;;;;6.27;5.77;;;;;;;16.94;100.00;100123.72;4961225;28;20219;-77
2023/09/11 03:16:21;;;;;;;6.37;5.87;;;;;;;16.95;100.00;100121.97;4968582;28;20192;-77
2023/09/11 03:18:47;;;;;;;6.40;5.90;;;;;;;16.94;100.00;100121.09;4966591;28;20257;-79
2023/09/11 03:21:12;;;;;;;6.17;5.67;;;;;;;16.94;100.00;100125.47;4965986;28;20191;-77
2023/09/11 03:23:37;;;;;;;6.50;6.00;;;;;;;16.94;100.00;100128.09;4953599;28;20194;-77
2023/09/11 03:26:10;;;;;;;5.80;5.40;;;;;;;16.92;100.00;100128.13;4957732;28;20269;-78
2023/09/11 03:28:36;;;;;;;6.50;5.90;;;;;;;16.89;100.00;100121.28;4958508;28;20584;-78
2023/09/11 03:31:04;;;;;;;7.27;6.67;;;;;;;16.86;100.00;100118.78;4962018;28;20195;-77
2023/09/11 03:33:29;;;;;;;6.53;6.03;;;;;;;16.83;100.00;100124.09;4955454;28;20765;-76
2023/09/11 03:35:55;;;;;;;6.60;6.10;;;;;;;16.76;100.00;100113.03;4957387;28;20277;-77
2023/09/11 03:38:20;;;;;;;6.40;5.90;;;;;;;16.73;100.00;100114.91;4960102;28;20224;-77
2023/09/11 03:40:46;;;;;;;6.50;6.00;;;;;;;16.68;100.00;100117.72;4962787;28;20199;-76
2023/09/11 03:43:11;;;;;;;6.03;5.63;;;;;;;16.63;100.00;100117.00;4959776;28;20206;-76
2023/09/11 03:45:37;;;;;;;6.73;6.13;;;;;;;16.61;100.00;100124.06;4961374;28;20204;-76
2023/09/11 03:48:02;;;;;;;7.43;6.83;;;;;;;16.58;100.00;100118.94;4954838;28;20747;-77
2023/09/11 03:50:28;;;;;;;6.97;6.37;;;;;;;16.58;100.00;100111.09;4960071;28;20277;-77
2023/09/11 03:52:54;;;;;;;7.03;6.40;;;;;;;16.58;100.00;100116.31;4968195;28;20231;-77
2023/09/11 03:55:20;;;;;;;7.77;7.00;;;;;;;16.62;100.00;100117.91;4971452;28;20936;-77
2023/09/11 03:57:45;;;;;;;7.90;7.20;;;;;;;16.62;100.00;100117.91;4965941;28;20186;-77
2023/09/11 04:00:11;;;;;;;8.67;7.90;;;;;;;16.64;100.00;100120.50;4964109;28;20359;-77
2023/09/11 04:02:38;;;;;;;7.77;7.10;;;;;;;16.61;100.00;100121.44;4961615;28;20292;-77
2023/09/11 04:05:03;;;;;;;7.77;7.07;;;;;;;16.61;100.00;100127.53;4959928;28;20218;-79
2023/09/11 04:07:29;;;;;;;6.87;6.37;;;;;;;16.62;100.00;100120.53;4959716;28;20201;-77
2023/09/11 04:09:54;;;;;;;7.33;6.73;;;;;;;16.59;100.00;100125.88;4964221;28;20725;-77
2023/09/11 04:12:19;;;;;;;6.57;6.07;;;;;;;16.57;100.00;100127.69;4960828;28;20217;-77
2023/09/11 04:14:45;;;;;;;6.60;6.10;;;;;;;16.53;100.00;100121.72;4960916;28;20253;-78
2023/09/11 04:17:10;;;;;;;6.70;6.20;;;;;;;16.53;100.00;100124.34;4959344;28;20843;-77
2023/09/11 04:19:39;;;;;;;6.17;5.77;;;;;;;16.54;100.00;100119.97;4959830;28;20196;-78
2023/09/11 04:22:05;;;;;;;5.70;5.20;;;;;;;16.53;100.00;100123.50;4962025;28;20393;-76
2023/09/11 04:24:31;;;;;;;6.47;5.97;;;;;;;16.53;100.00;100120.88;4958724;28;20193;-78
2023/09/11 04:26:56;;;;;;;10.90;6.50;;;;;;;16.55;100.00;100125.13;4959381;28;20197;-77
2023/09/11 04:29:22;;;;;;;6.97;6.23;;;;;;;16.57;100.00;100125.06;4956671;28;20265;-77
2023/09/11 04:31:47;;;;;;;7.37;6.33;;;;;;;16.57;100.00;100118.09;4961823;28;20703;-79
2023/09/11 04:34:12;;;;;;;7.93;7.17;;;;;;;16.57;100.00;100122.44;4960562;28;20209;-76
2023/09/11 04:36:38;;;;;;;9.13;7.00;;;;;;;16.55;100.00;100127.75;4955798;28;20197;-76
2023/09/11 04:39:06;;;;;;;7.30;6.60;;;;;;;16.54;100.00;100127.81;4964109;28;20264;-77
2023/09/11 04:41:31;;;;;;;7.03;6.30;;;;;;;16.51;100.00;100138.38;4963265;28;20765;-76
2023/09/11 04:43:56;;;;;;;7.90;6.30;;;;;;;16.46;100.00;100139.38;4967426;28;20321;-76
2023/09/11 04:46:22;;;;;;;7.13;6.43;;;;;;;16.42;100.00;100127.31;4960692;28;20198;-77
2023/09/11 04:48:47;;;;;;;7.53;6.13;;;;;;;16.40;100.00;100133.53;4956092;28;20205;-77
2023/09/11 04:51:12;;;;;;;6.70;6.13;;;;;;;16.37;100.00;100133.63;4960532;28;20197;-77
2023/09/11 04:53:38;;;;;;;6.67;6.07;;;;;;;16.34;100.00;100133.72;4958383;28;20210;-77
2023/09/11 04:56:03;;;;;;;7.17;6.50;;;;;;;16.30;100.00;100131.25;4962924;28;20745;-78
2023/09/11 04:58:28;;;;;;;6.37;5.87;;;;;;;16.30;100.00;100136.47;4956680;28;20253;-78
2023/09/11 05:00:54;;;;;;;6.60;6.03;;;;;;;16.30;100.00;100140.81;4965991;28;20319;-78
2023/09/11 05:03:19;;;;;;;9.30;6.93;;;;;;;16.33;100.00;100132.88;4967984;28;20279;-78
2023/09/11 05:05:45;;;;;;;8.07;7.13;;;;;;;16.38;100.00;100136.19;4968596;28;20194;-77
2023/09/11 05:08:10;;;;;;;7.23;6.63;;;;;;;16.41;100.00;100137.84;4964542;28;20280;-78
2023/09/11 05:10:43;;;;;;;6.70;6.20;;;;;;;16.45;100.00;100134.22;4966080;28;20194;-78
2023/09/11 05:13:10;;;;;;;6.80;6.20;;;;;;;16.49;100.00;100134.97;4966540;28;20214;-79
2023/09/11 05:15:35;;;;;;;8.70;6.80;;;;;;;16.54;100.00;100127.81;4959602;28;20966;-78
2023/09/11 05:18:01;;;;;;;7.10;6.53;;;;;;;16.58;100.00;100127.63;4966293;28;20217;-78
2023/09/11 05:20:27;;;;;;;6.37;5.90;;;;;;;16.64;100.00;100129.19;4961803;28;20573;-78
2023/09/11 05:22:52;;;;;;;7.03;6.53;;;;;;;16.68;100.00;100136.00;4958446;28;20206;-78
2023/09/11 05:25:17;;;;;;;7.27;6.70;;;;;;;16.71;100.00;100129.78;4958017;28;20197;-77
2023/09/11 05:27:44;;;;;;;9.87;8.40;;;;;;;16.71;100.00;100135.03;4960569;28;20190;-76
2023/09/11 05:30:10;;;;;;;8.97;8.17;;;;;;;16.72;100.00;100134.94;4959986;28;20182;-77
2023/09/11 05:32:36;;;;;;;7.57;6.87;;;;;;;16.73;100.00;100138.44;4963327;28;20252;-77
2023/09/11 05:35:01;;;;;;;6.80;6.27;;;;;;;16.75;100.00;100132.22;4963026;28;20673;-75
2023/09/11 05:37:26;;;;;;;7.70;6.53;;;;;;;16.78;100.00;100136.50;4962283;28;20232;-76
2023/09/11 05:39:52;;;;;;;6.77;6.17;;;;;;;16.83;100.00;100136.34;4975483;28;20264;-77
2023/09/11 05:42:17;;;;;;;7.17;6.47;;;;;;;16.89;100.00;100133.47;4961819;28;20319;-76
2023/09/11 05:44:43;;;;;;;7.00;6.33;;;;;;;16.98;100.00;100134.91;4963649;28;20225;-77
2023/09/11 05:47:09;;;;;;;7.90;7.20;;;;;;;17.12;100.00;100140.47;4958557;28;20278;-77
2023/09/11 05:49:34;;;;;;;7.50;6.57;;;;;;;17.28;100.00;100138.13;4963653;28;20286;-77
2023/09/11 05:51:59;;;;;;;8.27;6.13;;;;;;;17.41;100.00;100140.25;4969252;28;20225;-78
2023/09/11 05:54:25;;;;;;;7.47;6.77;;;;;;;17.50;100.00;100145.09;4955547;28;20237;-76
2023/09/11 05:56:50;;;;;;;8.03;6.20;;;;;;;17.56;100.00;100146.63;4962760;28;20199;-77
2023/09/11 05:59:18;;;;;;;7.53;6.73;;;;;;;17.66;100.00;100148.81;4971275;28;20196;-77
2023/09/11 06:01:45;;;;;;;8.30;6.80;;;;;;;17.78;100.00;100143.97;4963458;28;21154;-77
2023/09/11 06:04:11;;;;;;;7.70;7.00;;;;;;;17.88;100.00;100150.56;4961719;28;20212;-77
2023/09/11 06:06:37;;;;;;;10.53;6.93;;;;;;;17.97;100.00;100160.66;4964057;28;20185;-77
2023/09/11 06:09:06;;;;;;;8.03;7.37;;;;;;;18.04;100.00;100157.78;4974355;28;20175;-76
2023/09/11 06:11:31;;;;;;;9.37;7.57;;;;;;;18.09;100.00;100151.44;4984566;28;20222;-77
2023/09/11 06:13:56;;;;;;;10.00;8.07;;;;;;;18.16;100.00;100159.88;4979710;28;20226;-77
2023/09/11 06:16:22;;;;;;;8.20;7.50;;;;;;;18.21;100.00;100157.06;4967378;28;20327;-77
2023/09/11 06:18:47;;;;;;;10.03;8.60;;;;;;;18.24;100.00;100157.78;4981352;28;20189;-77
2023/09/11 06:21:13;;;;;;;9.53;8.10;;;;;;;18.31;100.00;100163.59;4971178;28;20676;-76
2023/09/11 06:23:38;;;;;;;10.47;9.33;;;;;;;18.38;100.00;100153.72;4968657;28;20254;-76
2023/09/11 06:26:03;;;;;;;9.67;8.07;;;;;;;18.46;100.00;100153.38;4978295;28;20192;-77
2023/09/11 06:28:28;;;;;;;8.10;7.30;;;;;;;18.55;100.00;100155.59;4978994;28;20199;-76
2023/09/11 06:30:54;;;;;;;9.03;8.13;;;;;;;18.64;100.00;100155.19;4974544;28;20223;-76
2023/09/11 06:33:19;;;;;;;8.87;8.07;;;;;;;18.74;100.00;100145.13;4980815;28;20210;-76
2023/09/11 06:35:45;;;;;;;9.37;8.57;;;;;;;18.88;100.00;100150.59;4981940;28;20202;-77
2023/09/11 06:38:11;;;;;;;9.43;8.43;;;;;;;19.04;100.00;100156.03;4982008;28;20185;-77
2023/09/11 06:40:37;;;;;;;10.70;9.60;;;;;;;19.11;100.00;100155.72;4968437;28;20185;-76
2023/09/11 06:43:02;;;;;;;9.67;8.87;;;;;;;19.21;100.00;100153.53;4984167;28;20210;-76
2023/09/11 06:45:28;;;;;;;9.10;8.33;;;;;;;19.33;100.00;100156.44;4969691;28;20277;-76
2023/09/11 06:47:53;;;;;;;10.83;9.47;;;;;;;19.43;100.00;100148.97;4977029;28;20189;-77
2023/09/11 06:50:19;;;;;;;10.03;9.03;;;;;;;19.70;100.00;100160.81;4980436;28;20868;-78
2023/09/11 06:52:44;;;;;;;9.20;8.40;;;;;;;19.93;100.00;100151.81;4980201;28;20608;-76
2023/09/11 06:55:10;;;;;;;8.73;7.77;;;;;;;20.24;100.00;100151.13;4985073;28;20177;-77
2023/09/11 06:57:37;;;;;;;8.27;7.43;;;;;;;20.57;100.00;100159.94;4975200;28;20194;-77
2023/09/11 07:00:10;;;;;;;7.97;7.23;;;;;;;20.93;100.00;100152.81;4957896;28;20224;-77
2023/09/11 07:02:36;;;;;;;7.67;6.87;;;;;;;21.28;100.00;100153.50;4962562;28;20228;-78
2023/09/11 07:05:02;;;;;;;8.10;7.33;;;;;;;21.65;100.00;100152.38;4972470;28;20186;-77
2023/09/11 07:07:27;;;;;;;7.60;6.90;;;;;;;21.88;100.00;100157.16;4973472;28;20665;-77
2023/09/11 07:09:54;;;;;;;8.03;7.43;;;;;;;22.11;100.00;100152.31;4972649;28;20189;-77
2023/09/11 07:12:20;;;;;;;8.37;7.20;;;;;;;22.30;100.00;100154.69;4970657;28;20293;-77
2023/09/11 07:14:45;;;;;;;12.67;8.23;;;;;;;22.05;100.00;100153.53;4973006;28;20831;-76
2023/09/11 07:17:11;;;;;;;9.27;8.07;;;;;;;21.89;100.00;100152.75;4970504;28;20268;-76
2023/09/11 07:19:36;;;;;;;8.30;7.50;;;;;;;22.26;100.00;100154.97;4966989;28;20190;-76
2023/09/11 07:22:02;;;;;;;8.23;7.30;;;;;;;22.50;100.00;100157.97;4961934;28;20790;-76
2023/09/11 07:24:28;;;;;;;7.87;7.07;;;;;;;22.61;100.00;100157.31;4954076;28;20654;-76
2023/09/11 07:26:53;;;;;;;10.03;7.60;;;;;;;22.63;100.00;100160.66;4961519;28;20210;-78
2023/09/11 07:29:19;;;;;;;9.27;8.37;;;;;;;22.21;100.00;100150.81;4952964;28;20194;-76
2023/09/11 07:31:45;;;;;;;8.00;7.30;;;;;;;22.54;100.00;100159.44;4953219;28;20206;-76
2023/09/11 07:34:12;;;;;;;10.63;8.10;;;;;;;22.58;99.84;100158.31;4954701;28;20210;-76
2023/09/11 07:36:38;;;;;;;10.33;8.23;;;;;;;22.58;100.00;100165.41;4959061;28;20201;-76
2023/09/11 07:39:03;;;;;;;8.70;6.93;;;;;;;23.06;99.03;100160.66;4952426;28;20207;-76
2023/09/11 07:41:29;;;;;;;8.57;6.83;;;;;;;23.42;97.40;100166.31;4954892;28;20290;-77
2023/09/11 07:43:54;;;;;;;8.53;7.63;;;;;;;23.61;96.10;100158.03;4952734;28;20554;-77
2023/09/11 07:46:21;;;;;;;10.10;7.83;;;;;;;23.50;96.39;100168.47;4954939;28;20189;-76
2023/09/11 07:48:48;;;;;;;7.33;6.53;;;;;;;23.67;96.89;100162.06;4962797;28;20659;-76
2023/09/11 07:51:13;;;;;;;7.50;6.80;;;;;;;23.65;96.17;100167.47;4961368;28;20187;-76
2023/09/11 07:53:39;;;;;;;9.50;6.47;;;;;;;23.68;96.42;100167.25;4964365;28;20743;-76
2023/09/11 07:56:10;;;;;;;8.40;6.80;;;;;;;23.72;96.09;100168.75;4966072;28;20186;-75
2023/09/11 07:58:35;;;;;;;7.80;6.30;;;;;;;23.73;95.99;100164.31;4966640;28;20197;-78
2023/09/11 08:01:01;;;;;;;7.37;6.60;;;;;;;23.69;95.81;100166.28;4969245;28;20197;-78
2023/09/11 08:03:27;;;;;;;7.80;7.03;;;;;;;23.53;96.55;100168.25;4960666;28;20238;-76
2023/09/11 08:05:53;;;;;;;12.80;7.77;;;;;;;23.17;98.13;100170.50;4968953;28;20264;-76
2023/09/11 08:08:18;;;;;;;8.13;6.90;;;;;;;23.29;97.54;100158.34;4963578;28;20574;-75
2023/09/11 08:10:44;;;;;;;7.43;6.70;;;;;;;23.34;97.98;100161.53;4967412;28;20190;-78
2023/09/11 08:13:09;;;;;;;9.00;7.87;;;;;;;23.21;99.81;100160.66;4957038;28;20210;-76
2023/09/11 08:15:34;;;;;;;8.10;7.30;;;;;;;23.09;100.00;100173.63;4966149;28;20737;-77
2023/09/11 08:18:00;;;;;;;10.30;7.40;;;;;;;23.16;100.00;100173.25;4965822;28;20193;-76
2023/09/11 08:20:25;;;;;;;9.47;7.40;;;;;;;23.22;99.77;100167.59;4964680;28;20200;-76
2023/09/11 08:22:50;;;;;;;8.20;6.97;;;;;;;23.30;99.78;100160.03;4958018;28;20284;-78
2023/09/11 08:25:16;;;;;;;10.83;6.97;;;;;;;23.43;100.00;100163.56;4963262;28;20194;-76
2023/09/11 08:27:41;;;;;;;8.67;6.80;;;;;;;23.58;99.00;100160.88;4960528;28;20188;-77
2023/09/11 08:30:07;;;;;;;8.90;8.00;;;;;;;23.59;99.35;100159.94;4967857;28;20182;-76
2023/09/11 08:32:35;;;;;;;9.33;7.67;;;;;;;23.65;99.86;100156.03;4958487;28;20221;-77
2023/09/11 08:35:02;;;;;;;8.50;7.60;;;;;;;23.73;99.54;100159.03;4963089;28;21155;-77
2023/09/11 08:37:28;;;;;;;9.90;8.10;;;;;;;23.83;100.00;100159.25;4966515;28;20182;-77
2023/09/11 08:39:53;;;;;;;8.23;7.37;;;;;;;23.92;100.00;100156.00;4968196;28;20292;-76
2023/09/11 08:42:19;;;;;;;8.63;7.77;;;;;;;23.99;99.43;100165.22;4966483;28;20221;-76
2023/09/11 08:44:44;;;;;;;8.07;7.37;;;;;;;24.05;100.00;100166.59;4962257;28;20183;-76
2023/09/11 08:47:12;;;;;;;7.83;7.13;;;;;;;24.12;99.92;100159.97;4952992;28;20875;-76
2023/09/11 08:49:52;;;;;;;9.13;8.03;;;;;;;24.24;99.70;100166.22;4963215;28;20216;-77
2023/09/11 08:52:18;;;;;;;8.27;7.50;;;;;;;24.19;98.46;100166.53;4964396;28;20442;-78
2023/09/11 08:54:48;;;;;;;9.07;8.20;;;;;;;24.30;97.97;100163.13;4968071;28;20300;-77
2023/09/11 08:57:15;;;;;;;8.80;8.00;;;;;;;24.34;96.68;100156.69;4968290;28;20186;-78
2023/09/11 08:59:46;;;;;;;8.60;7.60;;;;;;;24.39;97.32;100158.19;4970315;28;20719;-78
2023/09/11 09:02:13;;;;;;;11.07;9.10;;;;;;;24.17;97.92;100157.00;4963919;28;20724;-77
2023/09/11 09:04:40;;;;;;;8.90;8.00;;;;;;;24.34;98.08;100153.22;4969805;28;20190;-78
2023/09/11 09:07:07;;;;;;;8.20;7.43;;;;;;;24.38;98.04;100157.31;4978090;28;20181;-79
2023/09/11 09:09:32;;;;;;;9.93;8.03;;;;;;;24.50;97.07;100156.47;4990475;28;20196;-79
2023/09/11 09:11:58;;;;;;;8.87;7.97;;;;;;;24.56;96.41;100157.00;4976908;28;20209;-77
2023/09/11 09:14:27;;;;;;;8.60;7.70;;;;;;;24.63;96.16;100158.28;4973885;28;20678;-78
2023/09/11 09:16:53;;;;;;;10.57;7.90;;;;;;;24.81;94.89;100153.50;4960689;28;20203;-77
2023/09/11 09:19:18;;;;;;;10.53;8.17;;;;;;;24.94;93.65;100145.53;4961722;28;20218;-77
2023/09/11 09:22:16;;;;;;;8.40;7.70;;;;;;;25.05;93.41;100148.25;4983892;28;20216;-77
2023/09/11 09:24:52;;;;;;;9.70;8.67;;;;;;;25.05;94.38;100144.75;4970052;28;20203;-78
2023/09/11 09:27:20;;;;;;;7.90;7.00;;;;;;;25.06;95.09;100144.66;4977200;28;20204;-78
2023/09/11 09:29:47;;;;;;;8.60;7.70;;;;;;;25.13;95.92;100141.53;4973679;28;20188;-77
2023/09/11 09:32:13;;;;;;;7.93;7.20;;;;;;;25.22;95.77;100138.25;4961093;28;20213;-77
2023/09/11 09:34:48;;;;;;;7.90;7.17;;;;;;;25.32;96.90;100135.78;4969985;28;20182;-77
2023/09/11 09:37:17;;;;;;;8.47;7.67;;;;;;;25.45;96.54;100130.41;4966313;28;20232;-78
2023/09/11 09:39:44;;;;;;;9.30;7.80;;;;;;;25.57;93.72;100132.16;4967600;28;20668;-78
2023/09/11 09:42:11;;;;;;;9.43;8.10;;;;;;;25.63;92.07;100128.22;4963893;28;20291;-76
2023/09/11 09:44:39;;;;;;;11.03;8.10;;;;;;;25.72;91.92;100128.34;4966154;28;20182;-77
2023/09/11 09:47:16;;;;;;;8.83;8.03;;;;;;;25.78;92.09;100123.56;4969427;28;20642;-77
2023/09/11 09:49:57;;;;;;;10.97;8.43;;;;;;;25.78;92.65;100126.22;4963046;28;20189;-76
2023/09/11 09:52:29;;;;;;;11.67;8.23;;;;;;;25.85;92.21;100122.97;4972388;28;20835;-77
2023/09/11 09:54:57;;;;;;;8.50;7.80;;;;;;;25.98;91.75;100119.38;4972717;28;20182;-77
2023/09/11 09:57:25;;;;;;;10.23;7.93;;;;;;;26.04;91.95;100113.63;4971229;28;20189;-78
2023/09/11 09:59:53;;;;;;;8.73;7.83;;;;;;;26.08;93.63;100106.25;4968660;28;20192;-78
2023/09/11 10:02:27;;;;;;;9.30;8.40;;;;;;;26.16;93.31;100106.56;4974903;28;20205;-77
2023/09/11 10:05:03;;;;;;;8.60;7.90;;;;;;;26.27;92.15;100103.03;4969069;28;20208;-77
2023/09/11 10:07:38;;;;;;;9.70;8.70;;;;;;;26.32;90.03;100103.53;4975115;28;20680;-77
2023/09/11 10:10:24;;;;;;;8.27;7.57;;;;;;;26.26;90.79;100096.06;4967966;28;20283;-76
2023/09/11 10:13:08;;;;;;;7.63;7.03;;;;;;;26.34;91.71;100098.97;4968157;28;20590;-77
2023/09/11 10:15:36;;;;;;;8.43;7.53;;;;;;;26.38;92.76;100087.16;4966987;28;20190;-77
2023/09/11 10:18:03;;;;;;;8.73;7.90;;;;;;;26.48;91.34;100084.59;4964890;28;20182;-77
2023/09/11 10:20:29;;;;;;;8.20;7.40;;;;;;;26.50;90.64;100080.00;4968438;28;20189;-76
2023/09/11 10:22:56;;;;;;;9.13;7.63;;;;;;;26.60;89.12;100074.81;4971058;28;20205;-77
2023/09/11 10:25:22;;;;;;;8.43;7.63;;;;;;;26.61;89.23;100071.19;4967088;28;20611;-76
2023/09/11 10:27:58;;;;;;;8.80;7.93;;;;;;;26.69;89.51;100079.41;4982963;28;20197;-76
2023/09/11 10:30:25;;;;;;;8.00;7.30;;;;;;;26.71;89.90;100069.47;4978085;28;20190;-76
2023/09/11 10:33:01;;;;;;;9.20;8.30;;;;;;;26.90;89.71;100076.84;4976783;28;20771;-78
2023/09/11 10:35:30;;;;;;;8.83;7.93;;;;;;;26.96;87.10;100072.84;4972616;28;20268;-77
2023/09/11 10:37:56;;;;;;;8.30;7.60;;;;;;;26.91;87.82;100072.38;4974244;28;20186;-77
2023/09/11 10:40:23;;;;;;;8.37;7.57;;;;;;;26.91;88.54;100075.88;4965643;28;20186;-77
2023/09/11 10:42:49;;;;;;;9.13;8.03;;;;;;;27.00;90.13;100068.94;4984403;28;20583;-78
2023/09/11 10:45:34;;;;;;;8.10;7.37;;;;;;;27.12;90.98;100060.97;4973621;28;20186;-76
2023/09/11 10:47:59;;;;;;;7.53;6.83;;;;;;;27.13;91.06;100057.34;4970326;28;20228;-80
2023/09/11 10:50:36;;;;;;;8.20;7.50;;;;;;;27.18;90.72;100057.78;4977484;28;20678;-78
2023/09/11 10:53:06;;;;;;;8.77;8.00;;;;;;;27.24;89.09;100057.28;4969941;28;20224;-79
2023/09/11 10:55:32;;;;;;;10.67;8.30;;;;;;;27.38;87.91;100054.31;4965135;28;20262;-78
2023/09/11 10:57:58;;;;;;;8.37;7.67;;;;;;;27.39;88.45;100050.69;4965024;28;20210;-78
2023/09/11 11:00:25;;;;;;;8.37;7.50;;;;;;;27.41;89.04;100044.41;4963761;28;20216;-79
2023/09/11 11:02:52;;;;;;;8.83;7.93;;;;;;;27.54;88.61;100045.09;4965405;28;20209;-80
2023/09/11 11:05:17;;;;;;;8.53;7.70;;;;;;;27.47;88.03;100042.13;4970669;28;20181;-78
2023/09/11 11:07:43;;;;;;;8.40;7.70;;;;;;;27.51;89.15;100035.56;4968944;28;20535;-78
2023/09/11 11:10:12;;;;;;;8.23;7.60;;;;;;;27.62;88.42;100044.44;4962141;28;20670;-78
2023/09/11 11:12:40;;;;;;;7.90;7.20;;;;;;;27.68;88.10;100038.63;4963494;28;20932;-78
2023/09/11 11:15:23;;;;;;;8.60;7.90;;;;;;;27.78;88.02;100033.31;4958067;28;20186;-79
2023/09/11 11:18:14;;;;;;;9.50;8.70;;;;;;;27.76;88.37;100032.59;4965358;28;20196;-78